Time;durP1;ratioP1;P1;durP2;ratioP2;P2;SDS_P1;SDS_P2;PMS_P1;PMS_P2;Temp;Humidity;BMP_temperature;BMP_pressure;BME280_temperature;BME280_humidity;BME280_pressure;Samples;Min_cycle;Max_cycle;Signal;HPM_P1;HPM_P2
2021/06/20 00:00:19;;;;;;;9.33;8.63;;;21.10;99.90;;;;;;5074872;28;20429;-74
2021/06/20 00:02:46;;;;;;;10.43;9.53;;;21.10;99.90;;;;;;5073103;28;20427;-74
2021/06/20 00:05:15;;;;;;;9.93;9.20;;;21.10;99.90;;;;;;5073672;28;20431;-74
2021/06/20 00:07:41;;;;;;;10.13;9.23;;;21.10;99.90;;;;;;5069988;28;20914;-74
2021/06/20 00:10:08;;;;;;;10.00;9.20;;;21.10;99.90;;;;;;5073986;28;20525;-74
2021/06/20 00:12:38;;;;;;;10.30;9.30;;;21.00;99.90;;;;;;5074877;28;20475;-74
2021/06/20 00:15:08;;;;;;;9.47;8.67;;;21.00;99.90;;;;;;5068846;28;20442;-74
2021/06/20 00:17:33;;;;;;;12.20;11.00;;;21.00;99.90;;;;;;5074842;28;20434;-74
2021/06/20 00:19:59;;;;;;;10.80;9.90;;;20.90;99.90;;;;;;5073127;28;20445;-73
2021/06/20 00:22:25;;;;;;;9.40;8.73;;;21.00;99.90;;;;;;5071129;28;20332;-74
2021/06/20 00:24:50;;;;;;;11.97;10.73;;;20.90;99.90;;;;;;5072710;28;20210;-74
2021/06/20 00:27:16;;;;;;;10.50;9.50;;;20.90;99.90;;;;;;5072682;28;20197;-74
2021/06/20 00:29:42;;;;;;;12.13;11.10;;;21.00;99.90;;;;;;5072408;28;20204;-74
2021/06/20 00:32:07;;;;;;;10.37;9.47;;;20.80;99.90;;;;;;5067989;28;20264;-73
2021/06/20 00:34:33;;;;;;;11.97;10.77;;;20.80;99.90;;;;;;5073228;28;20195;-74
2021/06/20 00:36:59;;;;;;;11.90;10.87;;;20.90;99.90;;;;;;5065296;28;20177;-76
2021/06/20 00:39:24;;;;;;;11.17;10.17;;;20.90;99.90;;;;;;5074785;28;20191;-74
2021/06/20 00:41:50;;;;;;;11.30;10.30;;;20.90;99.90;;;;;;5070508;28;20184;-74
2021/06/20 00:44:16;;;;;;;11.83;10.63;;;20.90;99.90;;;;;;5072052;28;20192;-74
2021/06/20 00:46:42;;;;;;;14.87;11.53;;;20.90;99.90;;;;;;5073635;28;20554;-74
2021/06/20 00:49:08;;;;;;;11.90;10.80;;;20.90;99.90;;;;;;5077406;28;20634;-74
2021/06/20 00:51:34;;;;;;;11.80;10.70;;;20.90;99.90;;;;;;5074644;28;20423;-74
2021/06/20 00:53:59;;;;;;;11.40;10.40;;;20.90;99.90;;;;;;5070276;28;20258;-74
2021/06/20 00:56:25;;;;;;;11.33;10.20;;;20.90;99.90;;;;;;5081834;28;20427;-76
2021/06/20 00:59:02;;;;;;;13.87;11.83;;;20.90;99.90;;;;;;5085051;28;20179;-76
2021/06/20 01:01:31;;;;;;;12.57;11.57;;;21.00;99.90;;;;;;5086327;28;20274;-76
2021/06/20 01:03:58;;;;;;;11.90;10.83;;;20.90;99.90;;;;;;5082427;28;20431;-76
2021/06/20 01:06:28;;;;;;;12.27;11.17;;;20.90;99.90;;;;;;5087480;28;20506;-76
2021/06/20 01:08:55;;;;;;;11.10;10.20;;;20.90;99.90;;;;;;5083245;28;20482;-76
2021/06/20 01:11:21;;;;;;;12.13;11.07;;;21.00;99.90;;;;;;5081785;28;20433;-76
2021/06/20 01:13:48;;;;;;;11.83;10.90;;;20.90;99.90;;;;;;5082863;28;20423;-75
2021/06/20 01:16:14;;;;;;;10.40;9.60;;;20.90;99.90;;;;;;5088131;28;20429;-76
2021/06/20 01:18:40;;;;;;;10.30;9.47;;;20.90;99.90;;;;;;5084421;28;20442;-75
2021/06/20 01:21:08;;;;;;;10.50;9.70;;;20.90;99.90;;;;;;5086401;28;20517;-76
2021/06/20 01:23:34;;;;;;;12.03;10.87;;;20.90;99.90;;;;;;5083893;28;20372;-76
2021/06/20 01:26:00;;;;;;;11.27;10.37;;;20.90;99.90;;;;;;5088711;28;20446;-76
2021/06/20 01:28:28;;;;;;;11.03;10.10;;;20.80;99.90;;;;;;5087794;28;20526;-76
2021/06/20 01:30:59;;;;;;;12.30;11.17;;;20.80;99.90;;;;;;5084422;28;20447;-75
2021/06/20 01:33:26;;;;;;;12.83;11.63;;;20.80;99.90;;;;;;5082425;28;20414;-76
2021/06/20 01:35:53;;;;;;;12.80;11.50;;;20.90;99.90;;;;;;5082620;28;20419;-76
2021/06/20 01:38:18;;;;;;;12.80;11.60;;;21.00;99.90;;;;;;5085201;28;20435;-76
2021/06/20 01:40:44;;;;;;;14.70;12.03;;;20.90;99.90;;;;;;5080773;28;20441;-75
2021/06/20 01:43:10;;;;;;;12.77;11.77;;;20.90;99.90;;;;;;5087081;28;20205;-76
2021/06/20 01:45:37;;;;;;;12.97;11.83;;;20.80;99.90;;;;;;5085118;28;20206;-76
2021/06/20 01:48:04;;;;;;;12.43;11.43;;;20.80;99.90;;;;;;5088819;28;20188;-76
2021/06/20 01:50:30;;;;;;;12.60;11.50;;;20.80;99.90;;;;;;5088503;28;20517;-76
2021/06/20 01:53:08;;;;;;;10.57;9.67;;;20.80;99.90;;;;;;5084123;28;20424;-76
2021/06/20 01:55:35;;;;;;;12.10;11.03;;;20.70;99.90;;;;;;5084629;28;20482;-76
2021/06/20 01:58:02;;;;;;;13.03;11.83;;;20.70;99.90;;;;;;5082677;28;20430;-76
2021/06/20 02:00:28;;;;;;;12.10;11.07;;;20.80;99.90;;;;;;5080101;28;20442;-76
2021/06/20 02:02:54;;;;;;;11.53;10.40;;;20.80;99.90;;;;;;5084352;28;20427;-76
2021/06/20 02:05:24;;;;;;;11.30;10.23;;;20.90;99.90;;;;;;5085814;28;20249;-76
2021/06/20 02:07:50;;;;;;;12.73;10.07;;;20.80;99.90;;;;;;5076855;28;20180;-76
2021/06/20 02:10:15;;;;;;;11.07;10.17;;;20.70;99.90;;;;;;5085503;28;20787;-76
2021/06/20 02:12:41;;;;;;;11.40;10.43;;;20.80;99.90;;;;;;5083583;28;20189;-76
2021/06/20 02:15:09;;;;;;;13.30;11.90;;;20.80;99.90;;;;;;5088107;28;20264;-75
2021/06/20 02:17:35;;;;;;;12.83;11.83;;;20.80;99.90;;;;;;5082705;28;20219;-75
2021/06/20 02:20:10;;;;;;;13.20;12.00;;;20.70;99.90;;;;;;5080599;28;20426;-76
2021/06/20 02:22:39;;;;;;;13.93;12.40;;;20.80;99.90;;;;;;5085835;28;20414;-75
2021/06/20 02:25:05;;;;;;;11.73;10.63;;;20.80;99.90;;;;;;5088972;28;20426;-76
2021/06/20 02:27:31;;;;;;;12.93;11.83;;;20.80;99.90;;;;;;5088052;28;20411;-76
2021/06/20 02:29:58;;;;;;;11.03;10.13;;;20.90;99.90;;;;;;5085591;28;20495;-76
2021/06/20 02:32:24;;;;;;;10.57;9.63;;;20.90;99.90;;;;;;5089252;28;20536;-76
2021/06/20 02:34:51;;;;;;;12.93;11.73;;;21.00;99.90;;;;;;5085581;28;20402;-76
2021/06/20 02:37:19;;;;;;;12.80;11.07;;;21.00;99.90;;;;;;5083866;28;20517;-76
2021/06/20 02:39:45;;;;;;;12.60;11.37;;;20.90;99.90;;;;;;5083318;28;20458;-75
2021/06/20 02:42:12;;;;;;;10.90;10.00;;;20.90;99.90;;;;;;5088606;28;20435;-75
2021/06/20 02:44:38;;;;;;;11.67;10.77;;;20.90;99.90;;;;;;5085908;28;20219;-76
2021/06/20 02:47:05;;;;;;;12.53;11.50;;;21.00;99.90;;;;;;5087751;28;20430;-75
2021/06/20 02:49:32;;;;;;;12.50;11.43;;;21.10;99.90;;;;;;5089588;28;20800;-76
2021/06/20 02:51:59;;;;;;;10.47;9.67;;;21.00;99.90;;;;;;5076174;28;20423;-76
2021/06/20 02:54:25;;;;;;;12.30;11.20;;;21.00;99.90;;;;;;5083728;28;20434;-75
2021/06/20 02:56:51;;;;;;;12.47;11.40;;;21.00;99.90;;;;;;5092151;28;20426;-75
2021/06/20 02:59:17;;;;;;;11.93;10.83;;;21.10;99.90;;;;;;5090812;28;20437;-75
2021/06/20 03:01:42;;;;;;;12.40;11.30;;;21.10;99.90;;;;;;5086614;28;20185;-76
2021/06/20 03:04:08;;;;;;;11.37;10.10;;;21.20;99.90;;;;;;5090173;28;20234;-75
2021/06/20 03:06:34;;;;;;;11.90;10.90;;;21.20;99.90;;;;;;5089241;28;20184;-76
2021/06/20 03:09:00;;;;;;;15.20;11.20;;;21.10;99.90;;;;;;5084012;28;20458;-75
2021/06/20 03:11:26;;;;;;;12.07;11.07;;;21.10;99.90;;;;;;5087105;28;20185;-76
2021/06/20 03:13:52;;;;;;;10.73;9.93;;;21.10;99.90;;;;;;5082303;28;20184;-75
2021/06/20 03:16:20;;;;;;;11.57;10.03;;;21.20;99.90;;;;;;5092954;28;20203;-75
2021/06/20 03:18:46;;;;;;;12.90;11.90;;;21.20;99.90;;;;;;5094180;28;20419;-75
2021/06/20 03:21:12;;;;;;;12.40;10.43;;;21.30;99.90;;;;;;5090018;28;20426;-76
2021/06/20 03:23:38;;;;;;;11.13;10.23;;;21.30;99.90;;;;;;5091628;28;20430;-75
2021/06/20 03:26:04;;;;;;;11.10;10.20;;;21.20;99.90;;;;;;5092784;28;20426;-76
2021/06/20 03:28:29;;;;;;;14.50;11.53;;;21.20;99.90;;;;;;5088592;28;20192;-75
2021/06/20 03:30:55;;;;;;;11.77;10.77;;;21.30;99.90;;;;;;5087486;28;20484;-75
2021/06/20 03:33:21;;;;;;;12.33;11.23;;;21.20;99.90;;;;;;5093774;28;20669;-75
2021/06/20 03:35:47;;;;;;;10.93;9.90;;;21.20;99.90;;;;;;5093870;28;20238;-76
2021/06/20 03:38:12;;;;;;;12.10;11.20;;;21.20;99.90;;;;;;5091895;28;20189;-76
2021/06/20 03:40:38;;;;;;;11.97;11.03;;;21.20;99.90;;;;;;5091212;28;20200;-76
2021/06/20 03:43:04;;;;;;;13.23;11.90;;;21.30;99.90;;;;;;5086763;28;20222;-76
2021/06/20 03:45:30;;;;;;;13.43;12.13;;;21.30;99.90;;;;;;5088410;28;20426;-76
2021/06/20 03:47:55;;;;;;;11.47;10.57;;;21.30;99.90;;;;;;5087771;28;20267;-76
2021/06/20 03:50:21;;;;;;;11.33;10.53;;;21.30;99.90;;;;;;5093875;28;20176;-75
2021/06/20 03:52:47;;;;;;;11.70;10.70;;;21.30;99.90;;;;;;5095452;28;20244;-76
2021/06/20 03:55:13;;;;;;;11.37;10.33;;;21.30;99.90;;;;;;5088350;28;20453;-76
2021/06/20 03:57:39;;;;;;;13.30;12.03;;;21.30;99.90;;;;;;5086165;28;20433;-76
2021/06/20 04:00:08;;;;;;;13.30;12.10;;;21.30;99.90;;;;;;5085272;28;20423;-76
2021/06/20 04:02:35;;;;;;;12.47;11.37;;;21.30;99.90;;;;;;5088730;28;20177;-76
2021/06/20 04:05:00;;;;;;;12.47;11.37;;;21.30;99.90;;;;;;5091632;28;20457;-75
2021/06/20 04:07:26;;;;;;;11.77;10.80;;;21.30;99.90;;;;;;5085484;28;20423;-75
2021/06/20 04:09:52;;;;;;;13.23;11.83;;;21.40;99.90;;;;;;5086909;28;20459;-75
2021/06/20 04:12:18;;;;;;;18.33;11.63;;;21.40;99.90;;;;;;5081621;28;20598;-73
2021/06/20 04:14:44;;;;;;;15.17;10.10;;;21.40;99.90;;;;;;5077799;28;20230;-74
2021/06/20 04:17:10;;;;;;;10.80;9.40;;;21.40;99.90;;;;;;5074971;28;20173;-75
2021/06/20 04:19:36;;;;;;;9.40;8.70;;;21.40;99.90;;;;;;5066748;28;20208;-74
2021/06/20 04:22:02;;;;;;;10.30;9.47;;;21.40;99.90;;;;;;5065677;28;20489;-73
2021/06/20 04:24:28;;;;;;;10.57;9.50;;;21.40;99.90;;;;;;5074035;28;20264;-73
2021/06/20 04:26:54;;;;;;;10.47;9.33;;;21.30;99.90;;;;;;5068476;28;20533;-73
2021/06/20 04:29:20;;;;;;;9.93;8.70;;;21.20;99.90;;;;;;5072787;28;20516;-74
2021/06/20 04:31:46;;;;;;;9.43;8.53;;;21.20;99.90;;;;;;5065412;28;20579;-73
2021/06/20 04:34:12;;;;;;;10.90;8.03;;;21.10;99.90;;;;;;5067329;28;20521;-73
2021/06/20 04:36:38;;;;;;;8.40;7.60;;;21.10;99.90;;;;;;5068506;28;20181;-74
2021/06/20 04:39:07;;;;;;;9.17;7.40;;;21.10;99.90;;;;;;5070304;28;20431;-73
2021/06/20 04:41:39;;;;;;;7.23;6.73;;;21.10;99.90;;;;;;5070945;28;20184;-74
2021/06/20 04:44:06;;;;;;;6.87;6.23;;;21.10;99.90;;;;;;5072616;28;20495;-74
2021/06/20 04:46:37;;;;;;;6.17;5.70;;;21.00;99.90;;;;;;5072358;28;20434;-73
2021/06/20 04:49:08;;;;;;;6.17;5.40;;;21.00;99.90;;;;;;5072782;28;20469;-74
2021/06/20 04:51:40;;;;;;;5.80;5.30;;;21.00;99.90;;;;;;5073004;28;20415;-74
2021/06/20 04:54:11;;;;;;;9.17;5.10;;;20.90;99.90;;;;;;5071323;28;20427;-74
2021/06/20 04:56:38;;;;;;;5.37;4.87;;;20.90;99.90;;;;;;5069023;28;20565;-74
2021/06/20 04:59:05;;;;;;;5.10;4.70;;;20.90;99.90;;;;;;5070751;28;20423;-74
2021/06/20 05:01:31;;;;;;;4.83;4.53;;;20.90;99.90;;;;;;5067128;28;20457;-73
2021/06/20 05:03:57;;;;;;;5.37;4.87;;;20.80;99.90;;;;;;5072296;28;20462;-73
2021/06/20 05:06:23;;;;;;;5.27;4.70;;;20.80;99.90;;;;;;5071922;28;20181;-74
2021/06/20 05:08:49;;;;;;;4.93;4.13;;;20.80;99.90;;;;;;5071662;28;20200;-74
2021/06/20 05:11:15;;;;;;;4.50;4.20;;;20.80;99.90;;;;;;5069037;28;20591;-73
2021/06/20 05:13:41;;;;;;;6.47;4.07;;;20.70;99.90;;;;;;5074303;28;20869;-74
2021/06/20 05:16:07;;;;;;;3.97;3.77;;;20.70;99.90;;;;;;5068585;28;20625;-74
2021/06/20 05:18:33;;;;;;;5.50;3.87;;;20.70;99.90;;;;;;5071515;28;20361;-74
2021/06/20 05:20:59;;;;;;;4.10;3.80;;;20.60;99.90;;;;;;5070477;28;20805;-74
2021/06/20 05:23:25;;;;;;;5.67;4.00;;;20.70;99.90;;;;;;5068893;28;20498;-74
2021/06/20 05:25:52;;;;;;;4.13;3.83;;;20.60;99.90;;;;;;5072381;28;20223;-73
2021/06/20 05:28:19;;;;;;;3.73;3.43;;;20.60;99.90;;;;;;5071082;28;20509;-74
2021/06/20 05:30:45;;;;;;;3.20;3.00;;;20.60;99.90;;;;;;5072099;28;20517;-74
2021/06/20 05:33:19;;;;;;;4.17;3.77;;;20.60;99.90;;;;;;5071341;28;20434;-73
2021/06/20 05:35:45;;;;;;;3.60;3.10;;;20.50;99.90;;;;;;5071761;28;20430;-73
2021/06/20 05:38:12;;;;;;;4.13;3.73;;;20.50;99.90;;;;;;5070361;28;20430;-74
2021/06/20 05:40:39;;;;;;;3.70;3.40;;;20.50;99.90;;;;;;5067770;28;20435;-73
2021/06/20 05:43:05;;;;;;;7.60;3.43;;;20.50;99.90;;;;;;5071217;28;20525;-73
2021/06/20 05:45:32;;;;;;;3.53;2.27;;;20.40;99.90;;;;;;5073656;28;20475;-74
2021/06/20 05:47:57;;;;;;;2.63;2.43;;;20.50;99.90;;;;;;5071196;28;20440;-74
2021/06/20 05:50:24;;;;;;;2.30;2.20;;;20.40;99.90;;;;;;5072333;28;21005;-74
2021/06/20 05:52:50;;;;;;;4.10;2.80;;;20.30;99.90;;;;;;5069284;28;20180;-74
2021/06/20 05:55:16;;;;;;;5.77;2.67;;;20.20;99.90;;;;;;5070858;28;20502;-74
2021/06/20 05:57:41;;;;;;;2.90;2.70;;;20.20;99.90;;;;;;5073147;28;20454;-74
2021/06/20 06:00:09;;;;;;;2.20;2.07;;;20.20;99.90;;;;;;5072617;28;20173;-74
2021/06/20 06:02:35;;;;;;;3.10;2.80;;;20.20;99.90;;;;;;5072418;28;20173;-74
2021/06/20 06:05:00;;;;;;;2.90;2.50;;;20.10;99.90;;;;;;5064986;28;20430;-74
2021/06/20 06:07:26;;;;;;;2.47;2.27;;;20.10;99.90;;;;;;5067873;28;20172;-74
2021/06/20 06:09:52;;;;;;;2.43;2.33;;;20.10;99.90;;;;;;5069304;28;20287;-74
2021/06/20 06:12:21;;;;;;;2.50;2.30;;;20.10;99.90;;;;;;5071449;28;20184;-74
2021/06/20 06:14:47;;;;;;;4.90;3.13;;;20.10;99.90;;;;;;5070977;28;20499;-74
2021/06/20 06:17:13;;;;;;;5.10;2.97;;;20.10;99.90;;;;;;5067067;28;20431;-74
2021/06/20 06:19:38;;;;;;;2.40;2.20;;;20.10;99.90;;;;;;5086574;28;20173;-74
2021/06/20 06:22:04;;;;;;;3.57;2.90;;;20.20;99.90;;;;;;5069897;28;20185;-73
2021/06/20 06:24:30;;;;;;;3.83;3.13;;;20.30;99.90;;;;;;5070625;28;20267;-73
2021/06/20 06:26:55;;;;;;;4.70;3.57;;;20.30;99.90;;;;;;5068699;28;20223;-73
2021/06/20 06:29:21;;;;;;;2.97;2.70;;;20.30;99.90;;;;;;5071178;28;20712;-73
2021/06/20 06:31:46;;;;;;;2.50;2.30;;;20.40;99.90;;;;;;5070929;28;20173;-74
2021/06/20 06:34:12;;;;;;;2.63;2.43;;;20.50;99.90;;;;;;5072505;28;20559;-74
2021/06/20 06:36:38;;;;;;;2.53;2.37;;;20.60;99.90;;;;;;5070192;28;20161;-73
2021/06/20 06:39:04;;;;;;;3.20;2.87;;;20.80;99.90;;;;;;5075250;28;20173;-74
2021/06/20 06:41:31;;;;;;;3.00;2.73;;;20.90;99.90;;;;;;5072274;28;20177;-74
2021/06/20 06:43:57;;;;;;;3.27;2.80;;;21.10;99.90;;;;;;5072841;28;20927;-74
2021/06/20 06:46:23;;;;;;;2.60;2.50;;;21.20;99.90;;;;;;5071589;28;20438;-74
2021/06/20 06:48:48;;;;;;;2.93;2.70;;;21.30;99.90;;;;;;5073246;28;20543;-74
2021/06/20 06:51:14;;;;;;;4.60;3.53;;;21.50;99.90;;;;;;5065855;28;20542;-73
2021/06/20 06:53:40;;;;;;;5.47;2.87;;;21.60;99.90;;;;;;5067060;28;20177;-73
2021/06/20 06:56:06;;;;;;;3.03;2.83;;;21.70;99.90;;;;;;5069432;28;20188;-74
2021/06/20 06:58:31;;;;;;;5.53;3.50;;;21.80;99.90;;;;;;5073927;28;20449;-74
2021/06/20 07:00:57;;;;;;;3.40;3.10;;;21.80;99.90;;;;;;5073066;28;20177;-74
2021/06/20 07:03:23;;;;;;;8.03;4.67;;;22.00;99.90;;;;;;5069318;28;20628;-74
2021/06/20 07:05:48;;;;;;;4.60;4.00;;;22.00;99.90;;;;;;5070305;28;20260;-74
2021/06/20 07:08:14;;;;;;;4.20;3.90;;;22.00;99.90;;;;;;5063071;28;20404;-73
2021/06/20 07:10:40;;;;;;;4.83;3.43;;;21.90;99.90;;;;;;5067954;28;20169;-74
2021/06/20 07:13:06;;;;;;;4.00;3.70;;;22.00;99.90;;;;;;5069706;28;20237;-74
2021/06/20 07:15:32;;;;;;;4.10;3.30;;;22.00;99.90;;;;;;5069097;28;20215;-74
2021/06/20 07:17:59;;;;;;;5.47;3.70;;;22.00;99.90;;;;;;5065545;28;20749;-74
2021/06/20 07:20:25;;;;;;;4.33;3.27;;;22.10;99.90;;;;;;5070809;28;20176;-74
2021/06/20 07:22:51;;;;;;;4.73;3.63;;;22.10;99.90;;;;;;5069813;28;20418;-74
2021/06/20 07:25:19;;;;;;;6.80;3.77;;;22.20;99.90;;;;;;5067756;28;20181;-74
2021/06/20 07:27:46;;;;;;;4.53;3.50;;;22.10;99.90;;;;;;5068275;28;20197;-74
2021/06/20 07:30:16;;;;;;;5.67;3.30;;;22.10;99.90;;;;;;5071495;28;20545;-74
2021/06/20 07:32:43;;;;;;;8.10;4.03;;;22.20;99.90;;;;;;5073079;28;20422;-73
2021/06/20 07:35:09;;;;;;;6.23;3.60;;;22.20;99.90;;;;;;5068837;28;20422;-74
2021/06/20 07:37:36;;;;;;;4.57;3.73;;;22.20;99.90;;;;;;5072674;28;20500;-73
2021/06/20 07:40:04;;;;;;;6.80;3.40;;;22.20;99.90;;;;;;5068779;28;20506;-73
2021/06/20 07:42:29;;;;;;;6.20;3.50;;;22.40;99.90;;;;;;5063713;28;20487;-74
2021/06/20 07:44:55;;;;;;;5.40;3.43;;;22.40;99.90;;;;;;5069301;28;20438;-74
2021/06/20 07:47:21;;;;;;;7.73;3.80;;;22.40;99.90;;;;;;5071969;28;20199;-75
2021/06/20 07:49:47;;;;;;;6.77;4.37;;;22.50;99.90;;;;;;5071504;28;20201;-74
2021/06/20 07:52:13;;;;;;;5.33;4.07;;;22.60;99.90;;;;;;5073963;28;20430;-75
2021/06/20 07:54:42;;;;;;;8.43;4.30;;;22.60;99.90;;;;;;5070472;28;20176;-74
2021/06/20 07:57:08;;;;;;;6.73;4.13;;;22.60;99.90;;;;;;5069475;28;20627;-73
2021/06/20 07:59:34;;;;;;;6.00;4.20;;;22.60;99.90;;;;;;5063164;28;20438;-74
2021/06/20 08:02:00;;;;;;;7.00;4.60;;;22.60;99.90;;;;;;5069342;28;20437;-73
2021/06/20 08:04:25;;;;;;;5.83;4.73;;;22.70;99.90;;;;;;5069471;28;20432;-74
2021/06/20 08:06:51;;;;;;;4.63;4.10;;;22.70;99.90;;;;;;5072486;28;20176;-74
2021/06/20 08:09:18;;;;;;;4.07;3.67;;;22.90;99.90;;;;;;5072419;28;20238;-73
2021/06/20 08:11:44;;;;;;;5.47;3.77;;;22.90;99.90;;;;;;5074784;28;20169;-74
2021/06/20 08:14:09;;;;;;;4.27;3.87;;;23.10;99.90;;;;;;5073139;28;20599;-74
2021/06/20 08:16:35;;;;;;;8.40;5.80;;;23.10;99.90;;;;;;5065183;28;20191;-74
2021/06/20 08:19:01;;;;;;;5.33;4.93;;;22.90;99.90;;;;;;5070458;28;20276;-74
2021/06/20 08:21:27;;;;;;;7.33;4.60;;;22.90;99.90;;;;;;5067952;28;20325;-74
2021/06/20 08:23:53;;;;;;;6.00;4.40;;;22.90;99.90;;;;;;5076626;28;20185;-74
2021/06/20 08:26:18;;;;;;;10.07;4.00;;;22.90;99.90;;;;;;5082297;28;20923;-74
2021/06/20 08:28:44;;;;;;;4.60;4.20;;;23.00;99.90;;;;;;5079928;28;20243;-74
2021/06/20 08:31:10;;;;;;;4.67;4.07;;;22.90;99.90;;;;;;5083706;28;20173;-75
2021/06/20 08:33:36;;;;;;;5.23;4.20;;;22.90;99.90;;;;;;5079005;28;20179;-75
2021/06/20 08:36:01;;;;;;;6.40;4.87;;;22.70;99.90;;;;;;5071765;28;20509;-74
2021/06/20 08:38:27;;;;;;;6.47;4.40;;;22.80;99.90;;;;;;5075314;28;20179;-74
2021/06/20 08:40:57;;;;;;;5.30;4.90;;;22.80;99.90;;;;;;5078352;28;20192;-74
2021/06/20 08:43:23;;;;;;;4.67;4.30;;;22.90;99.90;;;;;;5073525;28;20176;-74
2021/06/20 08:45:53;;;;;;;8.00;4.40;;;23.00;99.90;;;;;;5065092;28;20462;-74
2021/06/20 08:48:19;;;;;;;5.53;5.03;;;23.00;99.90;;;;;;5063681;28;20446;-74
2021/06/20 08:50:47;;;;;;;5.10;4.70;;;23.00;99.90;;;;;;5062400;28;20493;-74
2021/06/20 08:53:16;;;;;;;5.70;5.30;;;23.00;99.90;;;;;;5065414;28;20818;-74
2021/06/20 08:55:46;;;;;;;6.33;5.20;;;22.90;99.90;;;;;;5064146;28;20431;-73
2021/06/20 08:58:28;;;;;;;7.40;5.70;;;22.80;99.90;;;;;;5063370;28;20426;-74
2021/06/20 09:00:57;;;;;;;5.90;5.40;;;22.70;99.90;;;;;;5071953;28;20441;-73
2021/06/20 09:03:24;;;;;;;6.50;5.10;;;22.80;99.90;;;;;;5072004;28;20441;-74
2021/06/20 09:05:57;;;;;;;5.40;5.00;;;22.80;99.90;;;;;;5072478;28;20430;-74
2021/06/20 09:08:26;;;;;;;6.93;5.37;;;22.80;99.90;;;;;;5072054;28;20430;-74
2021/06/20 09:10:52;;;;;;;6.10;5.50;;;22.80;99.90;;;;;;5070558;28;20435;-74
2021/06/20 09:13:18;;;;;;;6.50;5.40;;;22.80;99.90;;;;;;5070290;28;20434;-74
2021/06/20 09:15:43;;;;;;;7.83;5.27;;;22.80;99.90;;;;;;5070447;28;20843;-74
2021/06/20 09:18:12;;;;;;;5.27;4.77;;;22.80;99.90;;;;;;5071387;28;20191;-75
2021/06/20 09:20:43;;;;;;;5.60;5.20;;;22.90;99.90;;;;;;5062907;28;20185;-74
2021/06/20 09:23:15;;;;;;;6.80;6.23;;;23.00;99.90;;;;;;5059712;28;20430;-72
2021/06/20 09:25:42;;;;;;;6.30;5.70;;;23.10;99.90;;;;;;5064003;28;20443;-72
2021/06/20 09:28:13;;;;;;;7.27;6.20;;;23.20;99.90;;;;;;5067630;28;20427;-73
2021/06/20 09:30:49;;;;;;;6.30;5.70;;;23.20;99.90;;;;;;5060584;28;20433;-74
2021/06/20 09:33:16;;;;;;;10.17;5.80;;;23.20;99.90;;;;;;5062433;28;20438;-74
2021/06/20 09:35:42;;;;;;;6.40;5.87;;;23.30;99.90;;;;;;5060138;28;20431;-74
2021/06/20 09:38:16;;;;;;;7.70;7.10;;;23.40;99.90;;;;;;5065433;28;20478;-74
2021/06/20 09:40:42;;;;;;;5.30;4.80;;;23.60;99.90;;;;;;5061963;28;20419;-74
2021/06/20 09:43:16;;;;;;;6.70;6.00;;;23.80;99.90;;;;;;5067309;28;20414;-74
2021/06/20 09:45:47;;;;;;;6.43;5.97;;;24.00;99.90;;;;;;5060262;28;20174;-74
2021/06/20 09:48:24;;;;;;;7.20;6.53;;;24.10;99.90;;;;;;5063566;28;20445;-74
2021/06/20 09:50:50;;;;;;;8.27;7.57;;;24.10;99.90;;;;;;5065002;28;20732;-74
2021/06/20 09:53:20;;;;;;;6.73;6.00;;;24.20;99.90;;;;;;5066992;28;20419;-74
2021/06/20 09:55:46;;;;;;;7.80;6.97;;;24.30;99.90;;;;;;5067372;28;20427;-74
2021/06/20 09:58:11;;;;;;;6.60;5.93;;;24.30;99.90;;;;;;5065662;28;20414;-74
2021/06/20 10:00:41;;;;;;;9.13;6.90;;;24.40;99.90;;;;;;5064810;28;20208;-74
2021/06/20 10:03:07;;;;;;;6.70;6.00;;;24.40;99.90;;;;;;5066325;28;20629;-74
2021/06/20 10:05:33;;;;;;;7.50;6.90;;;24.50;99.90;;;;;;5064843;28;20422;-74
2021/06/20 10:08:01;;;;;;;8.27;7.57;;;24.40;99.90;;;;;;5071350;28;20183;-75
2021/06/20 10:10:27;;;;;;;6.27;5.67;;;24.30;99.90;;;;;;5068269;28;20283;-74
2021/06/20 10:12:53;;;;;;;7.03;6.33;;;24.70;99.90;;;;;;5065500;28;20501;-74
2021/06/20 10:15:19;;;;;;;10.73;6.70;;;25.00;99.90;;;;;;5062945;28;20411;-74
2021/06/20 10:17:54;;;;;;;8.97;7.20;;;25.10;99.90;;;;;;5070767;28;20267;-74
2021/06/20 10:20:20;;;;;;;9.40;6.83;;;25.10;99.90;;;;;;5068001;28;20414;-74
2021/06/20 10:22:47;;;;;;;7.13;6.43;;;25.20;99.90;;;;;;5070812;28;20426;-74
2021/06/20 10:25:27;;;;;;;7.90;6.80;;;25.50;99.90;;;;;;5068065;28;20431;-75
2021/06/20 10:28:14;;;;;;;7.13;6.40;;;25.40;99.90;;;;;;5069058;28;20460;-74
2021/06/20 10:30:45;;;;;;;8.30;6.10;;;25.50;99.90;;;;;;5068379;28;20438;-75
2021/06/20 10:33:16;;;;;;;6.33;5.70;;;25.80;99.90;;;;;;5067862;28;20510;-74
2021/06/20 10:35:43;;;;;;;10.70;6.30;;;25.70;99.90;;;;;;5073447;28;20946;-75
2021/06/20 10:38:31;;;;;;;5.70;5.20;;;25.70;99.90;;;;;;5071958;28;20406;-75
2021/06/20 10:40:57;;;;;;;6.97;6.03;;;25.50;99.90;;;;;;5067785;28;20426;-74
2021/06/20 10:43:23;;;;;;;8.30;6.93;;;25.40;99.90;;;;;;5070440;28;20422;-74
2021/06/20 10:45:49;;;;;;;6.50;6.00;;;25.50;99.90;;;;;;5070441;28;20172;-74
2021/06/20 10:48:23;;;;;;;6.13;5.70;;;25.70;99.90;;;;;;5065719;28;20445;-75
2021/06/20 10:50:50;;;;;;;7.70;5.60;;;26.00;99.90;;;;;;5066351;28;20259;-74
2021/06/20 10:53:18;;;;;;;6.83;6.13;;;26.00;99.90;;;;;;5066972;28;20427;-74
2021/06/20 10:55:45;;;;;;;5.53;5.13;;;26.20;99.90;;;;;;5070298;28;20455;-74
2021/06/20 10:58:24;;;;;;;6.27;5.70;;;26.10;99.90;;;;;;5070952;28;20477;-74
2021/06/20 11:00:53;;;;;;;5.63;5.20;;;26.10;99.90;;;;;;5068948;28;20455;-75
2021/06/20 11:03:23;;;;;;;5.77;5.13;;;26.00;99.90;;;;;;5062195;28;20423;-74
2021/06/20 11:05:52;;;;;;;5.10;4.73;;;25.70;99.90;;;;;;5070632;28;20428;-74
2021/06/20 11:08:46;;;;;;;5.10;4.60;;;25.50;99.90;;;;;;5064046;28;20471;-74
2021/06/20 11:11:18;;;;;;;5.23;4.83;;;25.50;99.90;;;;;;5064423;28;20434;-74
2021/06/20 11:13:59;;;;;;;5.70;5.30;;;25.40;99.90;;;;;;5066039;28;20971;-74
2021/06/20 11:16:36;;;;;;;5.77;5.27;;;25.30;99.90;;;;;;5064880;28;20489;-74
2021/06/20 11:19:09;;;;;;;5.20;4.80;;;25.50;99.90;;;;;;5070957;28;20431;-74
2021/06/20 11:21:57;;;;;;;5.13;4.60;;;25.90;99.90;;;;;;5070504;28;20495;-74
2021/06/20 11:24:28;;;;;;;5.57;4.13;;;26.10;99.90;;;;;;5060758;28;20442;-74
2021/06/20 11:27:11;;;;;;;4.77;4.37;;;26.50;99.90;;;;;;5073631;28;20432;-74
2021/06/20 11:29:46;;;;;;;4.13;3.93;;;26.70;99.90;;;;;;5066694;28;20447;-74
2021/06/20 11:32:26;;;;;;;3.90;3.60;;;27.10;99.90;;;;;;5069726;28;20415;-75
2021/06/20 11:34:57;;;;;;;7.53;4.93;;;27.60;99.90;;;;;;5073457;28;20433;-74
2021/06/20 11:37:29;;;;;;;4.80;4.40;;;28.00;99.90;;;;;;5073207;28;20411;-74
2021/06/20 11:40:02;;;;;;;4.50;4.20;;;28.50;99.90;;;;;;5073341;28;20430;-74
2021/06/20 11:42:29;;;;;;;5.93;4.57;;;28.70;99.90;;;;;;5061736;28;20789;-72
2021/06/20 11:45:07;;;;;;;7.13;4.27;;;28.40;99.90;;;;;;5062890;28;20580;-74
2021/06/20 11:47:34;;;;;;;6.50;4.00;;;28.00;99.90;;;;;;5063166;28;20514;-75
2021/06/20 11:50:33;;;;;;;4.20;4.00;;;28.00;99.90;;;;;;5065619;28;20448;-74
2021/06/20 11:53:09;;;;;;;4.80;4.43;;;28.00;99.90;;;;;;5060196;28;20438;-75
2021/06/20 11:55:40;;;;;;;6.50;4.67;;;28.20;99.90;;;;;;5066405;28;20432;-74
2021/06/20 11:58:07;;;;;;;3.47;3.20;;;28.40;99.90;;;;;;5055386;28;20506;-75
2021/06/20 12:00:35;;;;;;;3.20;3.00;;;28.50;99.90;;;;;;5063250;28;20426;-76
2021/06/20 12:03:18;;;;;;;2.97;2.77;;;28.40;99.90;;;;;;5061359;28;20426;-76
2021/06/20 12:05:49;;;;;;;3.57;3.37;;;28.40;99.90;;;;;;5065438;28;20431;-75
2021/06/20 12:08:16;;;;;;;3.27;3.07;;;28.30;99.90;;;;;;5061642;28;20427;-75
2021/06/20 12:10:44;;;;;;;3.40;3.17;;;28.30;99.90;;;;;;5067635;28;20431;-74
2021/06/20 12:13:10;;;;;;;12.43;3.60;;;28.00;99.90;;;;;;5065868;28;20419;-74
2021/06/20 12:15:38;;;;;;;3.50;3.30;;;27.80;99.90;;;;;;5062223;28;20425;-75
2021/06/20 12:18:05;;;;;;;3.10;2.90;;;27.70;99.90;;;;;;5057425;28;20172;-74
2021/06/20 12:20:34;;;;;;;3.70;3.40;;;27.60;99.90;;;;;;5069177;28;20534;-75
2021/06/20 12:23:00;;;;;;;3.60;2.87;;;27.70;99.90;;;;;;5068113;28;20430;-74
2021/06/20 12:25:26;;;;;;;3.07;2.97;;;27.70;99.90;;;;;;5065714;28;20432;-74
2021/06/20 12:27:52;;;;;;;2.70;2.60;;;27.80;99.90;;;;;;5061391;28;20431;-75
2021/06/20 12:30:25;;;;;;;3.33;3.13;;;28.00;99.90;;;;;;5069106;28;20291;-75
2021/06/20 12:32:51;;;;;;;3.37;3.07;;;28.10;99.90;;;;;;5063379;28;20291;-75
2021/06/20 12:35:26;;;;;;;3.13;2.93;;;28.20;99.90;;;;;;5062157;28;20508;-76
2021/06/20 12:37:54;;;;;;;3.00;2.90;;;28.00;99.90;;;;;;5064435;28;20581;-76
2021/06/20 12:40:21;;;;;;;3.23;3.03;;;28.20;99.90;;;;;;5062382;28;21639;-77
2021/06/20 12:42:53;;;;;;;3.40;3.20;;;28.30;99.90;;;;;;5069566;28;20430;-76